Time;durP1;ratioP1;P1;durP2;ratioP2;P2;SDS_P1;SDS_P2;PMS_P1;PMS_P2;Temp;Humidity;BMP_temperature;BMP_pressure;BME280_temperature;BME280_humidity;BME280_pressure;Samples;Min_cycle;Max_cycle;Signal;HPM_P1;HPM_P2
2023/07/20 00:02:15;;;;;;;11.00;7.35;;;;;;;15.61;90.25;101304.59;6167752;23;20008;-68
2023/07/20 00:04:40;;;;;;;8.50;6.45;;;;;;;15.71;89.29;101314.00;6193094;23;20050;-68
2023/07/20 00:07:05;;;;;;;9.05;6.72;;;;;;;15.83;88.70;101316.38;6167823;23;20099;-68
2023/07/20 00:09:32;;;;;;;8.77;6.63;;;;;;;15.83;90.20;101326.94;6217181;23;20032;-68
2023/07/20 00:12:00;;;;;;;8.77;7.45;;;;;;;15.84;90.17;101318.09;6218087;23;20015;-68
2023/07/20 00:14:26;;;;;;;11.30;7.82;;;;;;;15.87;90.21;101323.28;6217842;23;20007;-68
2023/07/20 00:17:00;;;;;;;8.77;7.72;;;;;;;15.92;89.83;101325.84;6168170;23;20012;-68
2023/07/20 00:19:27;;;;;;;11.82;8.10;;;;;;;15.91;89.44;101319.66;6171128;23;20035;-68
2023/07/20 00:21:53;;;;;;;10.30;7.55;;;;;;;16.01;88.94;101324.72;6216862;23;20027;-68
2023/07/20 00:24:19;;;;;;;9.60;7.30;;;;;;;16.03;89.36;101320.25;6216696;22;20020;-68
2023/07/20 00:26:44;;;;;;;11.73;7.38;;;;;;;16.02;89.62;101315.84;6193083;23;20074;-68
2023/07/20 00:29:10;;;;;;;11.43;8.35;;;;;;;15.97;89.21;101323.06;6192871;23;20089;-68
2023/07/20 00:31:37;;;;;;;10.10;7.63;;;;;;;16.05;88.93;101315.81;6193108;23;20357;-68
2023/07/20 00:34:03;;;;;;;10.82;7.65;;;;;;;16.08;88.54;101326.28;6216672;22;20008;-68
2023/07/20 00:36:29;;;;;;;10.52;7.78;;;;;;;16.05;88.90;101319.31;6218095;23;20087;-68
2023/07/20 00:38:54;;;;;;;9.13;7.43;;;;;;;16.06;88.75;101312.22;6191921;23;20085;-68
2023/07/20 00:41:20;;;;;;;11.48;7.20;;;;;;;16.02;89.29;101305.28;6192649;23;20019;-68
2023/07/20 00:43:45;;;;;;;9.98;7.38;;;;;;;16.00;89.76;101315.03;6192592;23;20019;-68
2023/07/20 00:46:13;;;;;;;8.73;7.03;;;;;;;15.91;90.54;101318.81;6167675;23;20015;-68
2023/07/20 00:48:41;;;;;;;10.55;7.93;;;;;;;15.89;90.52;101328.56;6216692;23;20008;-68
2023/07/20 00:51:07;;;;;;;12.68;8.15;;;;;;;15.90;90.40;101314.41;6216486;23;20004;-68
2023/07/20 00:53:32;;;;;;;12.73;7.70;;;;;;;15.84;90.14;101318.09;6217570;23;20077;-68
2023/07/20 00:55:58;;;;;;;10.90;7.22;;;;;;;15.85;90.55;101321.63;6191394;23;20015;-68
2023/07/20 00:58:24;;;;;;;9.63;7.22;;;;;;;15.93;90.13;101323.16;6192434;23;20090;-68
2023/07/20 01:00:50;;;;;;;10.90;8.02;;;;;;;15.80;90.21;101327.00;6217146;23;20008;-68
2023/07/20 01:03:15;;;;;;;12.73;8.23;;;;;;;15.83;90.44;101320.78;6166695;23;20090;-68
2023/07/20 01:06:08;;;;;;;12.90;8.25;;;;;;;15.86;90.67;101332.16;6191934;23;20012;-68
2023/07/20 01:08:45;;;;;;;11.57;8.20;;;;;;;15.85;91.19;101330.41;6216760;23;20004;-68
2023/07/20 01:11:28;;;;;;;13.90;8.48;;;;;;;15.91;91.07;101330.22;6217739;23;20004;-68
2023/07/20 01:13:53;;;;;;;13.70;7.75;;;;;;;15.86;90.60;101326.84;6217253;23;20038;-68
2023/07/20 01:16:19;;;;;;;10.40;8.30;;;;;;;15.92;89.93;101324.03;6217390;23;20008;-68
2023/07/20 01:18:44;;;;;;;12.65;8.10;;;;;;;15.90;90.50;101328.53;6165056;23;20024;-68
2023/07/20 01:21:17;;;;;;;9.57;7.60;;;;;;;15.89;90.92;101328.56;6191897;23;20008;-68
2023/07/20 01:24:24;;;;;;;10.23;8.05;;;;;;;15.88;91.20;101332.97;6216557;23;20065;-68
2023/07/20 01:27:34;;;;;;;11.88;8.13;;;;;;;15.98;90.57;101338.03;6201884;23;20078;-68
2023/07/20 01:30:14;;;;;;;10.45;7.93;;;;;;;15.87;90.98;101328.56;6216840;23;20010;-68
2023/07/20 01:32:42;;;;;;;9.73;8.73;;;;;;;15.70;91.69;101330.75;6216582;23;20014;-68
2023/07/20 01:35:10;;;;;;;11.65;9.07;;;;;;;15.71;92.24;101337.78;6244308;22;20053;-68
2023/07/20 01:37:38;;;;;;;11.70;9.13;;;;;;;15.58;91.87;101327.50;6192331;23;20087;-68
2023/07/20 01:40:04;;;;;;;10.15;9.00;;;;;;;15.62;92.74;101338.03;6216164;23;20082;-68
2023/07/20 01:42:29;;;;;;;13.80;9.68;;;;;;;15.63;92.94;101330.06;6192249;23;20015;-68
2023/07/20 01:44:55;;;;;;;12.00;9.60;;;;;;;15.63;93.26;101340.63;6192031;23;20004;-68
2023/07/20 01:47:20;;;;;;;11.23;9.30;;;;;;;15.63;92.75;101331.81;6191820;23;20018;-68
2023/07/20 01:49:46;;;;;;;10.85;9.57;;;;;;;15.57;92.87;101341.66;6192116;23;20023;-68
2023/07/20 01:52:11;;;;;;;13.65;11.07;;;;;;;15.53;93.03;101334.69;6167172;23;20073;-68
2023/07/20 01:54:36;;;;;;;15.00;12.60;;;;;;;15.52;93.87;101332.94;6166819;23;20012;-67
2023/07/20 01:57:02;;;;;;;13.77;12.23;;;;;;;15.54;94.20;101336.44;6166980;23;20095;-68
2023/07/20 01:59:28;;;;;;;17.40;15.15;;;;;;;15.47;94.66;101337.47;6167487;23;20012;-68
2023/07/20 02:01:53;;;;;;;15.18;13.57;;;;;;;15.52;94.19;101340.88;6215088;23;20075;-68
2023/07/20 02:04:19;;;;;;;18.10;16.23;;;;;;;15.42;94.95;101344.66;6191169;22;20012;-68
2023/07/20 02:06:44;;;;;;;16.27;14.38;;;;;;;15.47;94.76;101345.38;6167154;23;20008;-68
2023/07/20 02:09:10;;;;;;;16.73;14.80;;;;;;;15.44;95.05;101344.63;6191293;23;20048;-68
2023/07/20 02:11:35;;;;;;;17.67;15.30;;;;;;;15.48;95.00;101343.63;6167315;23;20043;-68
2023/07/20 02:14:01;;;;;;;16.77;15.18;;;;;;;15.40;95.24;101341.16;6167006;22;20077;-68
2023/07/20 02:16:26;;;;;;;16.77;15.00;;;;;;;15.47;95.50;101340.09;6216503;23;20485;-68
2023/07/20 02:18:52;;;;;;;17.25;15.35;;;;;;;15.47;95.80;101348.03;6167395;23;20098;-68
2023/07/20 02:21:18;;;;;;;17.30;15.48;;;;;;;15.45;96.07;101347.22;6168268;23;20066;-68
2023/07/20 02:23:43;;;;;;;16.10;14.45;;;;;;;15.50;95.50;101345.34;6192686;23;20004;-68
2023/07/20 02:26:09;;;;;;;17.13;15.07;;;;;;;15.46;95.29;101341.03;6218798;23;20015;-68
2023/07/20 02:28:34;;;;;;;16.23;14.63;;;;;;;15.38;95.29;101351.75;6168947;23;20012;-68
2023/07/20 02:31:00;;;;;;;17.25;15.23;;;;;;;15.47;95.89;101350.66;6168419;23;20089;-68
2023/07/20 02:33:26;;;;;;;16.35;14.65;;;;;;;15.45;95.48;101351.63;6218219;23;20329;-68
2023/07/20 02:35:52;;;;;;;17.08;15.38;;;;;;;15.44;95.91;101352.53;6218605;23;20043;-68
2023/07/20 02:38:17;;;;;;;17.23;15.32;;;;;;;15.40;95.53;101355.25;6193798;23;20370;-68
2023/07/20 02:40:43;;;;;;;15.40;13.75;;;;;;;15.37;95.79;101359.72;6192517;23;20005;-68
2023/07/20 02:43:09;;;;;;;18.40;15.27;;;;;;;15.38;95.48;101359.69;6193804;23;20043;-68
2023/07/20 02:45:35;;;;;;;16.73;15.02;;;;;;;15.36;96.08;101358.00;6193083;23;20008;-68
2023/07/20 02:48:01;;;;;;;18.05;15.05;;;;;;;15.40;96.62;101357.91;6217926;23;20042;-68
2023/07/20 02:50:26;;;;;;;16.67;14.88;;;;;;;15.42;96.10;101356.06;6193870;23;20342;-68
2023/07/20 02:52:51;;;;;;;15.98;14.45;;;;;;;15.50;95.62;101365.59;6193492;23;20494;-68
2023/07/20 02:55:17;;;;;;;15.73;14.15;;;;;;;15.39;95.74;101372.00;6217907;23;20362;-68
2023/07/20 02:57:42;;;;;;;16.25;14.60;;;;;;;15.46;95.73;101374.47;6168786;23;20430;-68
2023/07/20 03:00:09;;;;;;;15.80;14.23;;;;;;;15.43;95.91;101380.72;6192807;23;20016;-68
2023/07/20 03:02:34;;;;;;;15.15;13.65;;;;;;;15.48;95.75;101381.47;6193075;23;20016;-68
2023/07/20 03:05:00;;;;;;;15.32;13.73;;;;;;;15.45;95.76;101394.75;6193498;23;20498;-68
2023/07/20 03:07:28;;;;;;;16.25;14.57;;;;;;;15.30;96.50;101397.72;6218279;23;20008;-68
2023/07/20 03:09:54;;;;;;;15.95;13.85;;;;;;;15.39;96.31;101394.91;6217332;23;20004;-68
2023/07/20 03:12:20;;;;;;;14.90;13.43;;;;;;;15.47;95.76;101389.44;6218294;23;20422;-68
2023/07/20 03:14:46;;;;;;;16.08;13.82;;;;;;;15.45;95.65;101394.75;6168126;23;20008;-68
2023/07/20 03:17:11;;;;;;;13.90;12.50;;;;;;;15.38;95.79;101396.66;6192446;23;20028;-68
2023/07/20 03:19:37;;;;;;;14.00;12.48;;;;;;;15.36;95.78;101390.56;6193103;23;20020;-68
2023/07/20 03:22:05;;;;;;;13.82;12.52;;;;;;;15.36;95.41;101397.63;6168211;23;20066;-68
2023/07/20 03:24:30;;;;;;;14.38;12.93;;;;;;;15.34;95.09;101400.31;6217324;23;20087;-68
2023/07/20 03:26:56;;;;;;;13.48;11.98;;;;;;;15.30;95.05;101389.81;6168540;23;20086;-68
2023/07/20 03:29:21;;;;;;;13.63;12.25;;;;;;;15.24;95.42;101407.56;6167857;23;20032;-68
2023/07/20 03:31:48;;;;;;;15.35;12.45;;;;;;;15.21;95.73;101407.63;6218259;23;20409;-68
2023/07/20 03:34:13;;;;;;;14.38;12.95;;;;;;;15.15;96.17;101407.72;6191938;22;20012;-68
2023/07/20 03:36:38;;;;;;;13.52;12.20;;;;;;;15.15;95.82;101406.88;6193241;23;20073;-68
2023/07/20 03:39:04;;;;;;;14.48;12.15;;;;;;;15.20;95.25;101412.91;6192384;23;20023;-68
2023/07/20 03:41:29;;;;;;;13.90;12.60;;;;;;;15.09;95.51;101410.50;6218066;23;20145;-68
2023/07/20 03:43:55;;;;;;;14.27;12.88;;;;;;;15.07;95.68;101414.97;6217444;23;20421;-68
2023/07/20 03:46:21;;;;;;;13.20;11.82;;;;;;;15.06;94.92;101416.72;6193127;23;20095;-68
2023/07/20 03:48:46;;;;;;;14.32;12.88;;;;;;;14.89;96.04;101414.44;6217527;23;20015;-68
2023/07/20 03:51:13;;;;;;;13.77;12.38;;;;;;;14.94;95.41;101414.34;6193242;23;20410;-68
2023/07/20 03:53:38;;;;;;;12.93;11.65;;;;;;;14.85;95.40;101418.03;6217726;23;20478;-68
2023/07/20 03:56:04;;;;;;;13.25;11.48;;;;;;;14.85;94.69;101420.66;6168025;23;20004;-68
2023/07/20 03:58:31;;;;;;;14.05;11.98;;;;;;;14.89;94.86;101422.34;6168019;23;20031;-67
2023/07/20 04:00:57;;;;;;;14.13;11.40;;;;;;;14.75;95.38;101427.03;6192032;23;20034;-68
2023/07/20 04:03:24;;;;;;;13.32;11.93;;;;;;;14.83;94.91;101429.53;6217525;23;20027;-68
2023/07/20 04:05:50;;;;;;;11.93;10.73;;;;;;;14.78;94.82;101426.97;6169048;23;20049;-68
2023/07/20 04:08:15;;;;;;;12.43;11.23;;;;;;;14.80;94.64;101426.97;6193260;23;20393;-68
2023/07/20 04:10:44;;;;;;;11.68;10.30;;;;;;;14.62;95.64;101428.19;6192057;23;20004;-68
2023/07/20 04:13:10;;;;;;;11.90;10.38;;;;;;;14.77;95.34;101433.16;6218024;23;20091;-68
2023/07/20 04:15:35;;;;;;;11.82;10.43;;;;;;;14.78;94.91;101419.06;6167610;23;20043;-68
2023/07/20 04:18:00;;;;;;;10.07;9.07;;;;;;;15.01;94.83;101428.28;6167118;23;20038;-68
2023/07/20 04:20:26;;;;;;;10.52;9.52;;;;;;;15.14;93.90;101435.06;6217455;23;20501;-68
2023/07/20 04:22:51;;;;;;;10.27;9.27;;;;;;;15.12;93.21;101430.69;6192874;23;20011;-68
2023/07/20 04:25:20;;;;;;;9.05;8.15;;;;;;;15.31;93.83;101431.16;6191956;23;20008;-68
2023/07/20 04:27:46;;;;;;;9.55;7.43;;;;;;;15.92;91.78;101428.91;6217217;23;20392;-68
2023/07/20 04:30:12;;;;;;;9.10;7.15;;;;;;;16.37;89.37;101430.41;6192529;23;20027;-68
2023/07/20 04:32:43;;;;;;;7.72;6.93;;;;;;;16.67;87.12;101427.84;6192223;23;20008;-68
2023/07/20 04:35:09;;;;;;;7.45;6.70;;;;;;;17.30;84.71;101432.19;6193427;23;20434;-68
2023/07/20 04:37:35;;;;;;;7.45;6.65;;;;;;;17.62;82.97;101435.63;6192401;23;20022;-68
2023/07/20 04:40:01;;;;;;;6.80;5.72;;;;;;;17.88;81.02;101436.56;6166943;23;20085;-68
2023/07/20 04:42:26;;;;;;;7.10;5.65;;;;;;;18.52;78.39;101435.31;6191711;23;20307;-68
2023/07/20 04:44:52;;;;;;;6.68;5.63;;;;;;;18.81;76.59;101438.72;6167589;23;20016;-68
2023/07/20 04:47:17;;;;;;;6.45;5.15;;;;;;;19.26;75.35;101437.91;6216974;23;20004;-68
2023/07/20 04:49:43;;;;;;;6.72;5.57;;;;;;;19.71;73.56;101437.03;6192506;23;20012;-68
2023/07/20 04:52:08;;;;;;;7.15;5.50;;;;;;;19.97;71.79;101431.59;6167950;23;20046;-68
2023/07/20 04:54:33;;;;;;;6.03;5.25;;;;;;;20.48;69.78;101432.09;6191149;23;20457;-68
2023/07/20 04:56:59;;;;;;;7.13;5.53;;;;;;;20.92;67.72;101431.94;6189879;23;20437;-68
2023/07/20 04:59:24;;;;;;;8.82;5.18;;;;;;;21.24;66.40;101429.56;6192338;23;20008;-68
2023/07/20 05:01:50;;;;;;;6.22;5.38;;;;;;;21.70;64.84;101432.69;6167240;23;20338;-68
2023/07/20 05:04:15;;;;;;;5.78;4.80;;;;;;;21.93;63.93;101433.38;6217130;22;20504;-68
2023/07/20 05:06:41;;;;;;;6.85;5.15;;;;;;;22.38;62.22;101437.31;6167812;23;20007;-68
2023/07/20 05:09:07;;;;;;;5.97;4.50;;;;;;;22.81;60.69;101442.19;6216300;23;20004;-68
2023/07/20 05:11:32;;;;;;;7.45;4.78;;;;;;;22.82;60.34;101439.44;6192912;23;20066;-68
2023/07/20 05:13:58;;;;;;;5.07;4.38;;;;;;;23.35;59.03;101442.81;6216687;22;20016;-68
2023/07/20 05:16:23;;;;;;;5.60;4.03;;;;;;;23.70;56.84;101436.41;6192451;23;20020;-68
2023/07/20 05:18:49;;;;;;;5.85;4.13;;;;;;;24.10;55.46;101444.81;6166683;23;20028;-68
2023/07/20 05:21:14;;;;;;;6.30;3.95;;;;;;;24.16;55.45;101440.91;6217393;23;20050;-68
2023/07/20 05:23:40;;;;;;;3.83;3.47;;;;;;;24.21;55.11;101437.00;6191440;23;20430;-68
2023/07/20 05:26:05;;;;;;;6.85;3.88;;;;;;;24.60;53.34;101436.53;6192060;23;20008;-68
2023/07/20 05:28:31;;;;;;;5.68;2.97;;;;;;;24.83;52.22;101441.31;6167397;23;20345;-68
2023/07/20 05:30:59;;;;;;;5.43;3.33;;;;;;;24.66;52.72;101436.13;6167361;23;20010;-68
2023/07/20 05:33:25;;;;;;;3.78;3.47;;;;;;;25.02;52.00;101442.84;6191034;23;20087;-68
2023/07/20 05:35:50;;;;;;;4.85;3.13;;;;;;;25.38;51.95;101446.81;6165704;23;20430;-68
2023/07/20 05:38:16;;;;;;;3.97;2.97;;;;;;;25.65;50.24;101441.47;6166577;23;20027;-68
2023/07/20 05:40:44;;;;;;;3.42;2.70;;;;;;;25.82;49.99;101445.72;6190283;23;20016;-68
2023/07/20 05:43:10;;;;;;;3.92;2.83;;;;;;;26.07;49.02;101446.78;6216777;23;20008;-68
2023/07/20 05:45:36;;;;;;;3.60;3.13;;;;;;;25.61;48.84;101455.19;6216041;23;20265;-68
2023/07/20 05:48:02;;;;;;;3.35;3.05;;;;;;;24.61;51.30;101462.34;6191878;23;20490;-68
2023/07/20 05:50:28;;;;;;;4.07;3.38;;;;;;;23.75;53.77;101473.59;6217242;23;20089;-68
2023/07/20 05:52:54;;;;;;;4.18;3.55;;;;;;;23.37;55.08;101473.97;6217158;23;20091;-68
2023/07/20 05:55:19;;;;;;;4.82;3.67;;;;;;;23.28;56.59;101475.34;6217198;23;20337;-68
2023/07/20 05:57:45;;;;;;;4.65;4.00;;;;;;;23.89;54.33;101475.50;6193505;23;20008;-68
2023/07/20 06:00:12;;;;;;;5.05;3.95;;;;;;;25.01;51.53;101473.28;6193739;23;20091;-68
2023/07/20 06:02:39;;;;;;;5.28;3.72;;;;;;;25.79;49.54;101475.47;6194125;23;20038;-68
2023/07/20 06:05:05;;;;;;;4.85;3.63;;;;;;;25.24;49.73;101475.38;6217625;23;20011;-68
2023/07/20 06:07:32;;;;;;;6.30;3.72;;;;;;;24.62;51.63;101469.44;6192212;23;20038;-68
2023/07/20 06:09:58;;;;;;;5.13;3.65;;;;;;;24.15;51.87;101479.31;6190512;23;20018;-68
2023/07/20 06:12:23;;;;;;;4.13;3.72;;;;;;;23.70;53.65;101482.75;6168292;23;20004;-68
2023/07/20 06:14:49;;;;;;;4.20;3.20;;;;;;;23.67;55.56;101487.41;6167784;23;20012;-68
2023/07/20 06:17:14;;;;;;;4.55;3.42;;;;;;;24.39;54.62;101471.66;6191612;23;20016;-68
2023/07/20 06:19:40;;;;;;;4.93;3.45;;;;;;;25.70;52.41;101482.31;6167305;23;20326;-68
2023/07/20 06:22:05;;;;;;;4.25;3.20;;;;;;;26.27;48.26;101475.81;6191726;23;20460;-68
2023/07/20 06:24:31;;;;;;;4.05;3.50;;;;;;;25.50;49.07;101488.97;6166343;23;20039;-68
2023/07/20 06:26:56;;;;;;;4.28;3.88;;;;;;;25.68;49.04;101480.66;6181754;22;20121;-65
2023/07/20 06:29:32;;;;;;;5.43;4.05;;;;;;;24.88;51.16;101491.94;6174031;23;20376;-66
2023/07/20 06:31:59;;;;;;;5.60;4.10;;;;;;;23.77;53.15;101499.31;6155439;22;20015;-66
2023/07/20 06:57:41;;;;;;;4.40;4.00;;;;;;;24.41;53.99;101477.78;6215946;22;20101;-66
2023/07/20 07:18:40;;;;;;;4.28;3.40;;;;;;;21.99;55.60;101494.41;6237786;22;20426;-67
2023/07/20 07:21:05;;;;;;;3.85;3.30;;;;;;;21.84;56.77;101503.16;6217172;23;20452;-67
2023/07/20 07:23:31;;;;;;;5.38;4.38;;;;;;;21.75;56.45;101507.16;6192216;23;20020;-67
2023/07/20 07:25:56;;;;;;;4.28;3.88;;;;;;;21.82;57.31;101503.25;6187861;23;20012;-67
2023/07/20 07:28:22;;;;;;;4.57;3.92;;;;;;;22.17;56.83;101500.66;6213803;23;20005;-67
2023/07/20 07:30:47;;;;;;;4.72;3.40;;;;;;;22.08;56.83;101498.44;6185156;23;19996;-67
2023/07/20 07:33:16;;;;;;;4.68;3.50;;;;;;;21.35;55.69;101499.22;6160387;23;20040;-67
2023/07/20 07:35:42;;;;;;;3.80;3.40;;;;;;;21.10;56.74;101500.34;6191529;23;20027;-67
2023/07/20 07:38:07;;;;;;;3.90;2.90;;;;;;;21.16;57.72;101501.88;6191959;23;20012;-68
2023/07/20 07:40:33;;;;;;;3.92;3.15;;;;;;;20.99;58.05;101499.09;6191048;23;20035;-68
2023/07/20 07:42:58;;;;;;;4.45;3.45;;;;;;;20.45;58.06;101493.44;6192324;23;20042;-68
2023/07/20 07:45:24;;;;;;;5.30;3.22;;;;;;;20.47;60.79;101497.75;6192988;23;20432;-69
2023/07/20 07:47:49;;;;;;;3.50;3.20;;;;;;;20.29;59.00;101504.75;6217011;23;20012;-65
2023/07/20 07:50:14;;;;;;;3.65;3.35;;;;;;;20.34;60.22;101502.78;6190516;23;20028;-66
2023/07/20 07:52:40;;;;;;;6.35;2.70;;;;;;;19.86;58.95;101506.50;6242145;23;20104;-66
2023/07/20 07:55:06;;;;;;;4.72;2.90;;;;;;;19.67;60.28;101507.22;6189861;23;20091;-66
2023/07/20 07:57:31;;;;;;;5.40;3.42;;;;;;;19.64;61.04;101510.00;6216199;23;20063;-66
2023/07/20 07:59:57;;;;;;;5.70;2.90;;;;;;;19.92;62.49;101516.91;6217016;23;20026;-66
2023/07/20 08:02:22;;;;;;;5.03;2.72;;;;;;;20.19;62.08;101519.38;6191493;23;20127;-66
2023/07/20 08:04:48;;;;;;;2.75;2.55;;;;;;;20.04;61.12;101507.53;6216419;23;20027;-66
2023/07/20 08:07:16;;;;;;;3.50;2.00;;;;;;;20.09;59.40;101518.88;6191888;23;20012;-66
2023/07/20 08:09:41;;;;;;;4.50;2.30;;;;;;;20.18;60.32;101515.81;6217340;23;20012;-66
2023/07/20 08:12:07;;;;;;;3.00;1.83;;;;;;;19.93;58.06;101517.78;6218347;23;20460;-66
2023/07/20 08:14:32;;;;;;;4.22;2.40;;;;;;;20.25;61.28;101519.97;6243553;22;20018;-66
2023/07/20 08:16:58;;;;;;;4.43;2.40;;;;;;;20.11;60.04;101513.50;6192747;23;20291;-66
2023/07/20 08:19:23;;;;;;;3.33;2.60;;;;;;;20.13;59.87;101516.94;6191184;23;20141;-66
2023/07/20 08:21:49;;;;;;;2.90;2.38;;;;;;;20.45;61.49;101518.25;6217933;23;20008;-66
2023/07/20 08:24:14;;;;;;;3.00;2.60;;;;;;;20.64;60.50;101515.66;6217322;22;20087;-66
2023/07/20 08:26:40;;;;;;;3.33;2.72;;;;;;;20.60;58.32;101519.41;6243596;23;20012;-66
2023/07/20 08:29:05;;;;;;;3.88;2.42;;;;;;;20.51;58.98;101503.81;6193088;23;20086;-66
2023/07/20 08:31:31;;;;;;;2.92;2.60;;;;;;;20.74;60.87;101514.38;6218145;23;20382;-66
2023/07/20 08:33:56;;;;;;;3.88;2.60;;;;;;;20.75;59.36;101513.44;6191903;23;20123;-66
2023/07/20 08:36:23;;;;;;;3.17;2.70;;;;;;;20.72;59.38;101518.91;6218090;23;20012;-66
2023/07/20 08:38:48;;;;;;;3.28;2.30;;;;;;;20.70;59.44;101507.47;6192422;23;20433;-66
2023/07/20 08:41:14;;;;;;;3.10;2.08;;;;;;;20.74;58.92;101521.50;6243286;23;20012;-66
2023/07/20 08:43:42;;;;;;;4.00;2.00;;;;;;;20.65;59.20;101512.09;6217988;23;20057;-66
2023/07/20 08:46:10;;;;;;;3.20;2.15;;;;;;;20.27;57.63;101516.38;6218072;23;20591;-66
2023/07/20 08:48:36;;;;;;;4.13;2.22;;;;;;;20.34;56.63;101508.09;6217318;23;20307;-66
2023/07/20 08:51:04;;;;;;;2.50;1.92;;;;;;;20.04;57.52;101513.75;6168253;23;20004;-66
2023/07/20 08:53:31;;;;;;;5.85;2.20;;;;;;;20.01;56.90;101513.88;6218125;23;20145;-66
2023/07/20 08:55:58;;;;;;;2.38;1.95;;;;;;;19.83;58.69;101519.94;6217447;23;20054;-66
2023/07/20 08:58:26;;;;;;;3.05;2.25;;;;;;;19.71;58.06;101516.78;6218281;23;20023;-66
2023/07/20 09:00:53;;;;;;;3.25;2.10;;;;;;;19.76;59.32;101515.75;6217819;23;20008;-66
2023/07/20 09:03:19;;;;;;;2.22;1.80;;;;;;;19.87;60.95;101518.88;6192500;23;20012;-66
2023/07/20 09:05:45;;;;;;;2.05;1.70;;;;;;;19.76;60.19;101516.59;6192055;23;20059;-66
2023/07/20 09:08:10;;;;;;;3.00;2.63;;;;;;;19.74;61.16;101519.34;6218223;23;20070;-66
2023/07/20 09:10:36;;;;;;;3.47;3.17;;;;;;;20.00;63.36;101514.78;6242444;23;20000;-66
2023/07/20 09:13:01;;;;;;;4.70;3.55;;;;;;;20.31;63.72;101518.84;6217916;23;20091;-66
2023/07/20 09:15:28;;;;;;;3.63;3.33;;;;;;;20.36;61.43;101516.88;6192664;23;20012;-66
2023/07/20 09:17:54;;;;;;;3.97;3.17;;;;;;;20.33;62.23;101521.44;6243667;23;20012;-66
2023/07/20 09:20:20;;;;;;;4.25;2.70;;;;;;;20.40;60.08;101513.16;6192591;23;20035;-66
2023/07/20 09:22:49;;;;;;;3.45;3.10;;;;;;;20.45;59.63;101509.44;6218147;23;20329;-66
2023/07/20 09:25:22;;;;;;;3.03;2.72;;;;;;;20.43;60.91;101510.34;6217138;23;20016;-66
2023/07/20 09:27:49;;;;;;;3.95;2.80;;;;;;;20.41;61.32;101506.91;6218596;23;20095;-66
2023/07/20 09:30:15;;;;;;;4.38;3.20;;;;;;;20.62;59.63;101504.22;6194800;23;20019;-66
2023/07/20 09:32:43;;;;;;;3.80;2.65;;;;;;;20.62;61.27;101506.91;6194138;23;20008;-66
2023/07/20 09:35:19;;;;;;;3.65;3.35;;;;;;;20.59;60.23;101501.72;6244435;22;20008;-66
2023/07/20 09:37:58;;;;;;;4.70;3.50;;;;;;;20.75;60.90;101505.44;6219921;23;20012;-66
2023/07/20 09:40:25;;;;;;;4.70;3.58;;;;;;;20.88;61.18;101502.25;6219321;23;20008;-66
2023/07/20 09:42:59;;;;;;;3.63;3.30;;;;;;;21.03;60.10;101501.56;6219969;23;20087;-66
2023/07/20 09:45:29;;;;;;;5.13;3.38;;;;;;;21.27;57.87;101498.72;6219915;23;20012;-66
2023/07/20 09:48:04;;;;;;;5.60;3.78;;;;;;;21.07;57.87;101489.81;6244174;23;20054;-66
2023/07/20 09:50:30;;;;;;;5.65;3.80;;;;;;;20.99;56.89;101489.31;6245149;23;20008;-66
2023/07/20 09:52:56;;;;;;;4.25;3.85;;;;;;;20.75;57.65;101481.47;6220108;23;20325;-66
2023/07/20 09:55:24;;;;;;;3.95;3.50;;;;;;;20.87;58.46;101493.38;6245651;22;20008;-66
2023/07/20 09:57:53;;;;;;;4.22;3.50;;;;;;;20.90;58.32;101489.72;6195437;23;20066;-66
2023/07/20 10:00:19;;;;;;;3.55;2.95;;;;;;;21.13;57.15;101486.00;6220371;23;20498;-66
2023/07/20 10:02:45;;;;;;;3.95;3.13;;;;;;;21.13;57.18;101487.81;6244205;23;20015;-66
2023/07/20 10:05:13;;;;;;;3.22;2.38;;;;;;;21.33;55.70;101493.09;6219603;23;20008;-66
2023/07/20 10:07:47;;;;;;;2.65;2.45;;;;;;;21.47;56.41;101484.44;6218886;23;20426;-66
2023/07/20 10:10:17;;;;;;;2.88;2.55;;;;;;;21.63;56.05;101493.47;6241467;23;20548;-66
2023/07/20 10:12:46;;;;;;;3.45;2.90;;;;;;;21.59;53.00;101483.91;6244620;23;20065;-66
2023/07/20 10:15:28;;;;;;;2.92;2.45;;;;;;;21.51;54.52;101491.41;6246045;22;20096;-66
2023/07/20 10:18:12;;;;;;;2.55;2.35;;;;;;;21.34;53.21;101483.31;6243420;23;20086;-66
2023/07/20 10:20:41;;;;;;;3.58;2.47;;;;;;;21.24;54.12;101497.03;6244422;23;20004;-66
2023/07/20 10:23:07;;;;;;;3.25;2.60;;;;;;;20.99;52.15;101483.09;6244720;23;20000;-66
2023/07/20 10:25:37;;;;;;;5.50;2.63;;;;;;;20.89;55.11;101485.34;6217704;23;20015;-66
2023/07/20 10:28:07;;;;;;;2.63;2.42;;;;;;;20.82;53.36;101486.56;6244734;23;20160;-66
2023/07/20 10:30:36;;;;;;;2.38;1.90;;;;;;;20.86;54.31;101477.47;6244435;23;20000;-66
2023/07/20 10:33:03;;;;;;;4.50;2.93;;;;;;;20.59;53.34;101469.75;6193066;23;20012;-66
2023/07/20 10:35:29;;;;;;;7.85;2.80;;;;;;;20.99;56.91;101478.66;6244471;22;20039;-66
2023/07/20 10:38:00;;;;;;;3.38;2.30;;;;;;;20.83;54.52;101472.28;6218317;23;20004;-66
2023/07/20 10:40:32;;;;;;;3.30;3.00;;;;;;;21.14;55.40;101463.75;6244790;23;20000;-66
2023/07/20 10:43:03;;;;;;;3.35;2.90;;;;;;;21.50;54.64;101470.09;6244625;23;20091;-66
2023/07/20 10:45:48;;;;;;;16.08;3.58;;;;;;;21.56;54.71;101469.84;6244165;22;20083;-66
2023/07/20 10:48:16;;;;;;;3.30;2.72;;;;;;;21.32;54.51;101464.72;6243224;23;20007;-66
2023/07/20 10:50:43;;;;;;;3.00;1.83;;;;;;;21.45;53.70;101465.00;6243691;23;20444;-66
2023/07/20 10:53:18;;;;;;;2.03;1.75;;;;;;;21.60;55.24;101463.44;6219256;23;20008;-66
2023/07/20 10:55:46;;;;;;;2.00;1.27;;;;;;;21.66;51.37;101455.13;6245145;22;20007;-66
2023/07/20 10:58:14;;;;;;;2.38;1.75;;;;;;;21.80;51.75;101459.78;6219549;23;20342;-66
2023/07/20 11:01:01;;;;;;;3.08;1.80;;;;;;;21.83;52.04;101453.44;6219699;23;20009;-66
2023/07/20 11:03:28;;;;;;;2.22;1.55;;;;;;;21.87;51.13;101457.69;6218601;23;20008;-66
2023/07/20 11:05:54;;;;;;;3.15;1.70;;;;;;;21.79;51.19;101456.25;6243188;22;20380;-66
2023/07/20 11:08:41;;;;;;;2.40;1.80;;;;;;;21.92;51.55;101461.84;6219045;23;20016;-66
2023/07/20 11:11:29;;;;;;;3.17;2.30;;;;;;;21.78;51.70;101454.53;6219671;23;20039;-66
2023/07/20 11:13:59;;;;;;;2.47;1.88;;;;;;;21.80;53.20;101459.78;6244057;23;20432;-66
2023/07/20 11:16:40;;;;;;;2.38;2.17;;;;;;;21.97;53.63;101454.47;6219304;23;20142;-66
2023/07/20 11:19:17;;;;;;;3.47;2.33;;;;;;;21.88;54.23;101451.38;6218402;23;20019;-66
2023/07/20 11:21:45;;;;;;;3.58;1.98;;;;;;;21.65;53.47;101445.41;6220481;23;20008;-66
2023/07/20 11:24:13;;;;;;;5.50;2.65;;;;;;;21.71;53.64;101445.09;6242946;22;20011;-66
2023/07/20 11:26:54;;;;;;;2.45;2.20;;;;;;;21.73;52.42;101437.88;6244045;23;20425;-66
2023/07/20 11:29:22;;;;;;;2.40;2.08;;;;;;;21.60;53.17;101444.75;6243719;23;20062;-66
2023/07/20 11:31:49;;;;;;;2.90;2.33;;;;;;;21.53;54.12;101438.84;6244108;23;20004;-66
2023/07/20 11:34:20;;;;;;;3.10;2.50;;;;;;;21.48;53.98;101435.53;6242992;22;20008;-66
2023/07/20 11:36:47;;;;;;;2.95;2.25;;;;;;;21.47;54.28;101431.13;6243540;23;20008;-66
2023/07/20 11:39:14;;;;;;;3.38;2.50;;;;;;;21.45;53.19;101433.00;6242915;23;20377;-66
2023/07/20 11:41:46;;;;;;;3.75;2.28;;;;;;;21.51;54.01;101435.41;6218797;23;20005;-66
2023/07/20 11:44:15;;;;;;;5.35;2.80;;;;;;;21.54;52.89;101443.25;6243695;22;20006;-66
2023/07/20 11:46:44;;;;;;;4.07;2.70;;;;;;;21.42;53.65;101435.78;6195078;23;20008;-66
2023/07/20 11:49:11;;;;;;;2.67;2.47;;;;;;;21.54;54.93;101437.06;6242584;23;20008;-66
2023/07/20 11:51:37;;;;;;;5.18;3.30;;;;;;;21.53;55.26;101441.50;6241684;23;20090;-66
2023/07/20 11:54:05;;;;;;;5.35;3.33;;;;;;;21.44;54.47;101433.94;6217752;22;20027;-66
2023/07/20 11:56:32;;;;;;;3.78;2.40;;;;;;;21.44;54.25;101437.47;6218848;23;20008;-66
2023/07/20 11:59:01;;;;;;;5.43;2.30;;;;;;;21.56;54.11;101425.34;6218907;23;20031;-67
2023/07/20 12:01:35;;;;;;;3.65;2.38;;;;;;;21.57;54.96;101434.25;6243664;23;20000;-66
2023/07/20 12:04:04;;;;;;;3.42;1.80;;;;;;;21.51;52.50;101424.75;6218855;22;20008;-66
2023/07/20 12:06:30;;;;;;;2.50;1.90;;;;;;;21.55;52.82;101423.66;6195146;23;20034;-66